Time;durP1;ratioP1;P1;durP2;ratioP2;P2;SDS_P1;SDS_P2;PMS_P1;PMS_P2;Temp;Humidity;BMP_temperature;BMP_pressure;BME280_temperature;BME280_humidity;BME280_pressure;Samples;Min_cycle;Max_cycle;Signal;HPM_P1;HPM_P2
2023/11/04 00:02:12;;;;;;;5.93;2.72;;;7.40;99.90;;;;;;4991456;28;20022;-51
2023/11/04 00:04:38;;;;;;;4.97;3.20;;;7.40;99.90;;;;;;4990983;28;20062;-50
2023/11/04 00:07:03;;;;;;;4.85;3.33;;;7.50;99.90;;;;;;4991086;28;20109;-47
2023/11/04 00:09:29;;;;;;;7.53;2.72;;;7.50;99.90;;;;;;4990760;28;20037;-48
2023/11/04 00:11:54;;;;;;;10.65;3.35;;;7.50;99.90;;;;;;5016728;23;20063;-47
2023/11/04 00:14:20;;;;;;;6.57;3.00;;;7.50;99.90;;;;;;5010518;28;20090;-42
2023/11/04 00:16:46;;;;;;;6.68;3.25;;;7.60;99.90;;;;;;4992376;28;20043;-44
2023/11/04 00:19:11;;;;;;;7.00;2.80;;;7.60;99.90;;;;;;4990976;28;20018;-43
2023/11/04 00:21:41;;;;;;;8.52;2.88;;;7.60;99.90;;;;;;4990996;28;20449;-45
2023/11/04 00:24:09;;;;;;;7.38;3.47;;;7.60;99.90;;;;;;4990700;28;20473;-45
2023/11/04 00:26:35;;;;;;;11.38;5.25;;;7.70;99.90;;;;;;4991010;28;20076;-42
2023/11/04 00:29:01;;;;;;;30.85;12.25;;;7.70;99.90;;;;;;4990651;28;20031;-42
2023/11/04 00:31:28;;;;;;;9.93;5.63;;;7.70;99.90;;;;;;4990866;28;20077;-44
2023/11/04 00:33:54;;;;;;;3.42;2.28;;;7.80;99.90;;;;;;4990924;28;20054;-43
2023/11/04 00:36:19;;;;;;;2.28;1.80;;;7.80;99.90;;;;;;4990721;28;20409;-44
2023/11/04 00:38:45;;;;;;;3.55;2.03;;;7.80;99.90;;;;;;4989664;28;20029;-43
2023/11/04 00:41:11;;;;;;;5.13;2.47;;;7.90;99.90;;;;;;4991165;28;20139;-43
2023/11/04 00:43:36;;;;;;;7.13;1.77;;;7.90;99.90;;;;;;4989027;28;20033;-42
2023/11/04 00:46:02;;;;;;;3.00;1.73;;;7.90;99.90;;;;;;4990516;28;20409;-44
2023/11/04 00:48:28;;;;;;;6.57;2.25;;;8.00;99.90;;;;;;4990291;28;20018;-43
2023/11/04 00:50:53;;;;;;;3.53;2.03;;;7.90;99.90;;;;;;4990290;28;20409;-42
2023/11/04 00:53:19;;;;;;;2.95;2.03;;;8.00;99.90;;;;;;4990171;28;20022;-42
2023/11/04 00:55:44;;;;;;;4.85;2.10;;;8.00;99.90;;;;;;4990289;28;20038;-44
2023/11/04 00:58:10;;;;;;;4.80;1.55;;;8.10;99.90;;;;;;4990180;28;20023;-46
2023/11/04 01:00:39;;;;;;;2.10;1.35;;;8.10;99.90;;;;;;4988614;28;20117;-43
2023/11/04 01:03:05;;;;;;;3.55;1.70;;;8.00;99.90;;;;;;4990099;28;20022;-48
2023/11/04 01:05:30;;;;;;;6.28;1.23;;;8.00;99.90;;;;;;4989888;28;20026;-47
2023/11/04 01:07:56;;;;;;;2.25;1.75;;;8.00;99.90;;;;;;4990147;28;20501;-43
2023/11/04 01:10:21;;;;;;;1.75;1.20;;;8.10;99.90;;;;;;4989656;28;20031;-43
2023/11/04 01:12:47;;;;;;;1.77;1.05;;;8.10;99.90;;;;;;4989829;28;20030;-43
2023/11/04 01:15:12;;;;;;;1.55;1.25;;;8.10;99.90;;;;;;5004655;28;20098;-43
2023/11/04 01:17:38;;;;;;;1.40;1.30;;;8.10;99.90;;;;;;4989841;28;20022;-42
2023/11/04 01:20:07;;;;;;;2.85;1.30;;;8.20;99.90;;;;;;5004647;28;20019;-43
2023/11/04 01:22:32;;;;;;;2.20;1.30;;;8.20;99.90;;;;;;4989711;28;20188;-43
2023/11/04 01:24:58;;;;;;;1.45;1.30;;;8.20;99.90;;;;;;4989972;28;20474;-45
2023/11/04 01:27:23;;;;;;;1.60;1.48;;;8.20;99.90;;;;;;4990019;28;20038;-43
2023/11/04 01:29:49;;;;;;;3.90;1.58;;;8.20;99.90;;;;;;4989678;28;20105;-45
2023/11/04 01:32:15;;;;;;;3.80;1.38;;;8.20;99.90;;;;;;4989444;28;20027;-46
2023/11/04 01:34:41;;;;;;;4.45;1.50;;;8.20;99.90;;;;;;4988298;28;20525;-43
2023/11/04 01:37:06;;;;;;;3.47;1.92;;;8.30;99.90;;;;;;4989909;28;20022;-43
2023/11/04 01:39:33;;;;;;;2.45;2.03;;;8.30;99.90;;;;;;4990337;28;20048;-47
2023/11/04 01:42:04;;;;;;;5.20;2.17;;;8.20;99.90;;;;;;5004953;28;20397;-44
2023/11/04 01:44:30;;;;;;;3.58;2.60;;;8.20;99.90;;;;;;4989454;28;20022;-45
2023/11/04 01:46:56;;;;;;;4.32;3.08;;;8.20;99.90;;;;;;4989373;28;20033;-45
2023/11/04 01:49:21;;;;;;;2.35;2.13;;;8.20;99.90;;;;;;4989103;28;20103;-45
2023/11/04 01:51:47;;;;;;;4.45;2.45;;;8.10;99.90;;;;;;4990184;28;20037;-41
2023/11/04 01:54:14;;;;;;;5.65;3.42;;;8.10;99.90;;;;;;4989352;28;20078;-47
2023/11/04 01:56:41;;;;;;;5.90;2.78;;;8.10;99.90;;;;;;4989356;28;20022;-43
2023/11/04 01:59:10;;;;;;;11.10;3.72;;;8.00;99.90;;;;;;4989238;28;20026;-47
2023/11/04 02:01:36;;;;;;;7.50;3.17;;;8.00;99.90;;;;;;4988937;28;20018;-43
2023/11/04 02:04:03;;;;;;;5.32;3.15;;;8.00;99.90;;;;;;4989354;28;20030;-43
2023/11/04 02:06:28;;;;;;;5.15;3.15;;;8.00;99.90;;;;;;4989011;28;20454;-43
2023/11/04 02:09:00;;;;;;;6.13;3.53;;;7.90;99.90;;;;;;4988941;28;20113;-42
2023/11/04 02:11:26;;;;;;;6.72;3.40;;;8.00;99.90;;;;;;4989129;28;20036;-44
2023/11/04 02:13:52;;;;;;;7.55;3.25;;;7.80;99.90;;;;;;4989104;28;20034;-42
2023/11/04 02:16:17;;;;;;;5.13;3.67;;;7.80;99.90;;;;;;4989405;28;20023;-44
2023/11/04 02:18:43;;;;;;;4.95;3.15;;;7.80;99.90;;;;;;4989613;28;20054;-44
2023/11/04 02:21:08;;;;;;;5.45;3.05;;;7.70;99.90;;;;;;4989568;28;20101;-43
2023/11/04 02:23:34;;;;;;;7.32;3.30;;;7.70;99.90;;;;;;4989397;28;20119;-43
2023/11/04 02:25:59;;;;;;;6.97;3.22;;;7.70;99.90;;;;;;4989306;28;20030;-43
2023/11/04 02:28:25;;;;;;;3.85;2.83;;;7.70;99.90;;;;;;4989660;28;20121;-42
2023/11/04 02:30:51;;;;;;;6.57;3.60;;;7.70;99.90;;;;;;4989251;28;20140;-43
2023/11/04 02:33:16;;;;;;;4.45;3.08;;;7.70;99.90;;;;;;4989201;28;20026;-43
2023/11/04 02:35:44;;;;;;;3.78;2.90;;;7.70;99.90;;;;;;4989162;28;20033;-42
2023/11/04 02:38:09;;;;;;;12.15;3.35;;;7.70;99.90;;;;;;4989179;28;20536;-43
2023/11/04 02:40:35;;;;;;;4.97;3.22;;;7.80;99.90;;;;;;4988871;28;20076;-42
2023/11/04 02:43:00;;;;;;;4.68;3.13;;;7.70;99.90;;;;;;4989463;28;20027;-43
2023/11/04 02:45:26;;;;;;;3.97;2.78;;;7.70;99.90;;;;;;5004617;28;20069;-45
2023/11/04 02:47:51;;;;;;;3.80;2.58;;;7.70;99.90;;;;;;4992594;28;20217;-43
2023/11/04 02:50:17;;;;;;;5.00;2.80;;;7.80;99.90;;;;;;4992351;28;20033;-41
2023/11/04 02:52:43;;;;;;;9.35;3.63;;;7.80;99.90;;;;;;4992583;28;20042;-42
2023/11/04 02:55:09;;;;;;;7.28;2.88;;;7.80;99.90;;;;;;4992434;28;20205;-46
2023/11/04 02:57:35;;;;;;;2.95;2.42;;;7.90;99.90;;;;;;4993102;28;20075;-47
2023/11/04 03:00:00;;;;;;;8.10;3.58;;;7.90;99.90;;;;;;4993389;28;20529;-42
2023/11/04 03:02:26;;;;;;;6.75;2.80;;;7.90;99.90;;;;;;4992835;28;20113;-42
2023/11/04 03:04:53;;;;;;;4.38;2.28;;;7.90;99.90;;;;;;4992363;28;20029;-40
2023/11/04 03:07:19;;;;;;;5.93;2.50;;;7.90;99.90;;;;;;4992562;28;20046;-42
2023/11/04 03:09:45;;;;;;;5.53;2.88;;;7.90;99.90;;;;;;4992546;28;20060;-43
2023/11/04 03:12:10;;;;;;;4.18;2.88;;;7.80;99.90;;;;;;4992001;28;20030;-42
2023/11/04 03:14:36;;;;;;;3.40;2.30;;;7.90;99.90;;;;;;4992075;28;20026;-42
2023/11/04 03:17:01;;;;;;;2.38;2.17;;;7.80;99.90;;;;;;4992811;28;20026;-43
2023/11/04 03:19:27;;;;;;;4.32;2.70;;;7.80;99.90;;;;;;4991659;28;20033;-43
2023/11/04 03:21:53;;;;;;;4.20;2.88;;;7.80;99.90;;;;;;4991550;28;20107;-45
2023/11/04 03:24:19;;;;;;;5.32;2.58;;;7.80;99.90;;;;;;4991749;28;20039;-42
2023/11/04 03:26:44;;;;;;;4.57;2.95;;;7.80;99.90;;;;;;4991816;28;20181;-44
2023/11/04 03:29:10;;;;;;;6.30;2.50;;;7.80;99.90;;;;;;4991311;28;20026;-46
2023/11/04 03:31:36;;;;;;;5.18;2.60;;;7.80;99.90;;;;;;4991497;28;20037;-42
2023/11/04 03:34:03;;;;;;;5.82;2.72;;;7.80;99.90;;;;;;4991364;28;20034;-43
2023/11/04 03:36:28;;;;;;;4.22;2.47;;;7.80;99.90;;;;;;4991526;28;20154;-42
2023/11/04 03:38:54;;;;;;;2.90;2.35;;;7.80;99.90;;;;;;4991920;28;20019;-45
2023/11/04 03:41:19;;;;;;;4.85;2.38;;;7.80;99.90;;;;;;4992040;28;20031;-43
2023/11/04 03:43:45;;;;;;;2.58;2.08;;;7.80;99.90;;;;;;4993135;28;20030;-42
2023/11/04 03:46:11;;;;;;;2.30;2.10;;;7.70;99.90;;;;;;4992949;28;20034;-45
2023/11/04 03:48:39;;;;;;;4.45;2.83;;;7.70;99.90;;;;;;4991269;28;20493;-49
2023/11/04 03:51:06;;;;;;;3.20;2.17;;;7.80;99.90;;;;;;4990950;28;20026;-45
2023/11/04 03:53:31;;;;;;;3.38;2.70;;;7.80;99.90;;;;;;5006045;28;20527;-44
2023/11/04 03:55:57;;;;;;;2.72;2.42;;;7.80;99.90;;;;;;4991026;28;20030;-43
2023/11/04 03:58:23;;;;;;;3.95;2.60;;;7.80;99.90;;;;;;4990686;28;20038;-46
2023/11/04 04:00:48;;;;;;;5.88;2.65;;;7.80;99.90;;;;;;4991047;28;20470;-45
2023/11/04 04:03:14;;;;;;;3.28;2.38;;;7.80;99.90;;;;;;4990939;28;20127;-43
2023/11/04 04:05:39;;;;;;;2.22;2.03;;;7.80;99.90;;;;;;4990841;28;20447;-42
2023/11/04 04:08:05;;;;;;;2.45;2.15;;;7.80;99.90;;;;;;4990920;28;20034;-46
2023/11/04 04:10:30;;;;;;;2.58;2.38;;;7.80;99.90;;;;;;4990715;28;20459;-45
2023/11/04 04:12:56;;;;;;;3.78;2.40;;;7.80;99.90;;;;;;4989599;28;20057;-45
2023/11/04 04:15:22;;;;;;;2.30;1.92;;;7.80;99.90;;;;;;4990575;28;20065;-43
2023/11/04 04:17:47;;;;;;;3.38;2.13;;;7.80;99.90;;;;;;4990854;28;20046;-43
2023/11/04 04:20:16;;;;;;;3.53;2.08;;;7.90;99.90;;;;;;4990339;28;21690;-43
2023/11/04 04:22:41;;;;;;;2.70;2.47;;;7.90;99.90;;;;;;4990652;28;20038;-45
2023/11/04 04:25:08;;;;;;;5.38;2.25;;;7.90;99.90;;;;;;4990488;28;20026;-39
2023/11/04 04:27:34;;;;;;;5.40;2.67;;;7.90;99.90;;;;;;4990462;28;20026;-47
2023/11/04 04:29:59;;;;;;;3.25;2.35;;;7.90;99.90;;;;;;4990330;28;20041;-45
2023/11/04 04:32:25;;;;;;;5.15;2.45;;;8.00;99.90;;;;;;4990408;28;20400;-44
2023/11/04 04:34:50;;;;;;;5.47;2.00;;;8.00;99.90;;;;;;4990513;28;20105;-43
2023/11/04 04:37:16;;;;;;;2.72;2.15;;;7.90;99.90;;;;;;4990402;28;20022;-42
2023/11/04 04:39:41;;;;;;;7.65;2.30;;;7.90;99.90;;;;;;4990264;28;20067;-42
2023/11/04 04:42:07;;;;;;;4.75;1.77;;;7.90;99.90;;;;;;4990349;28;20542;-42
2023/11/04 04:44:33;;;;;;;2.90;1.80;;;7.90;99.90;;;;;;4990634;28;20105;-45
2023/11/04 04:46:59;;;;;;;5.70;2.30;;;7.90;99.90;;;;;;4990212;28;20034;-43
2023/11/04 04:49:25;;;;;;;4.13;2.22;;;7.90;99.90;;;;;;4989930;28;20064;-42
2023/11/04 04:51:51;;;;;;;2.40;2.17;;;7.90;99.90;;;;;;4988926;28;20062;-44
2023/11/04 04:54:16;;;;;;;3.70;2.00;;;7.90;99.90;;;;;;4989856;28;20068;-43
2023/11/04 04:56:42;;;;;;;7.75;2.80;;;7.90;99.90;;;;;;4990063;28;20026;-41
2023/11/04 04:59:08;;;;;;;2.25;1.90;;;7.90;99.90;;;;;;4989899;28;20026;-44
2023/11/04 05:01:33;;;;;;;2.67;2.30;;;7.90;99.90;;;;;;4989675;28;20030;-43
2023/11/04 05:03:59;;;;;;;5.05;1.95;;;7.90;99.90;;;;;;4990010;28;20026;-42
2023/11/04 05:06:25;;;;;;;2.58;2.38;;;7.90;99.90;;;;;;4990128;28;20461;-45
2023/11/04 05:08:51;;;;;;;1.70;1.60;;;7.90;99.90;;;;;;4989980;28;20118;-43
2023/11/04 05:11:16;;;;;;;4.30;2.42;;;8.00;99.90;;;;;;4988624;28;20122;-41
2023/11/04 05:13:42;;;;;;;4.55;2.00;;;8.00;99.90;;;;;;4990105;28;20110;-42
2023/11/04 05:16:08;;;;;;;2.78;1.90;;;8.10;99.90;;;;;;4989753;28;20049;-49
2023/11/04 05:18:33;;;;;;;4.13;2.28;;;8.00;99.90;;;;;;4990066;28;20026;-44
2023/11/04 05:21:02;;;;;;;1.73;1.60;;;8.10;99.90;;;;;;4989842;28;20651;-44
2023/11/04 05:23:29;;;;;;;2.97;1.80;;;8.00;99.90;;;;;;4989880;28;20034;-44
2023/11/04 05:25:55;;;;;;;2.53;1.70;;;8.00;99.90;;;;;;4989745;28;20026;-44
2023/11/04 05:28:21;;;;;;;5.70;1.73;;;8.00;99.90;;;;;;4989907;28;20026;-42
2023/11/04 05:30:47;;;;;;;5.90;1.70;;;8.00;99.90;;;;;;4989417;28;20037;-43
2023/11/04 05:33:12;;;;;;;2.97;1.98;;;8.10;99.90;;;;;;4988428;28;20023;-41
2023/11/04 05:35:38;;;;;;;2.67;1.67;;;8.00;99.90;;;;;;4988371;28;20567;-47
2023/11/04 05:38:03;;;;;;;3.15;1.50;;;8.00;99.90;;;;;;4990005;28;20064;-42
2023/11/04 05:40:29;;;;;;;2.92;1.83;;;8.00;99.90;;;;;;4989512;28;20026;-43
2023/11/04 05:42:58;;;;;;;3.10;1.27;;;8.00;99.90;;;;;;4989678;28;20029;-44
2023/11/04 05:45:24;;;;;;;2.35;1.63;;;8.00;99.90;;;;;;4989419;28;20480;-43
2023/11/04 05:47:50;;;;;;;1.80;1.70;;;8.00;99.90;;;;;;4989531;28;20057;-42
2023/11/04 05:50:15;;;;;;;1.83;1.50;;;8.00;99.90;;;;;;4989284;28;20065;-42
2023/11/04 05:52:43;;;;;;;2.13;1.92;;;8.10;99.90;;;;;;4989374;28;20034;-42
2023/11/04 05:55:09;;;;;;;3.72;1.95;;;8.10;99.90;;;;;;5004178;28;20076;-42
2023/11/04 05:57:34;;;;;;;5.70;1.17;;;8.00;99.90;;;;;;4989316;28;20105;-42
2023/11/04 06:00:06;;;;;;;3.45;1.58;;;8.00;99.90;;;;;;4989129;28;20546;-42
2023/11/04 06:02:32;;;;;;;2.03;1.50;;;8.10;99.90;;;;;;4989767;28;20436;-44
2023/11/04 06:04:58;;;;;;;3.70;1.60;;;8.00;99.90;;;;;;4989344;28;20030;-41
2023/11/04 06:07:23;;;;;;;1.52;1.42;;;8.00;99.90;;;;;;4989344;28;20035;-46
2023/11/04 06:09:49;;;;;;;1.27;1.17;;;8.10;99.90;;;;;;4989250;28;20027;-42
2023/11/04 06:12:14;;;;;;;4.60;1.50;;;8.10;99.90;;;;;;5012474;23;20468;-49
2023/11/04 06:14:40;;;;;;;2.25;1.80;;;8.10;99.90;;;;;;5008989;28;20026;-47
2023/11/04 06:17:06;;;;;;;1.75;1.50;;;8.10;99.90;;;;;;4991586;28;20524;-47
2023/11/04 06:19:32;;;;;;;1.67;1.40;;;8.00;99.90;;;;;;4989402;28;20410;-49
2023/11/04 06:21:57;;;;;;;1.65;1.55;;;8.00;99.90;;;;;;4992150;28;20022;-47
2023/11/04 06:24:23;;;;;;;5.60;1.45;;;8.10;99.90;;;;;;4992991;28;20026;-49
2023/11/04 06:26:48;;;;;;;3.70;1.40;;;8.00;99.90;;;;;;4991445;28;20121;-48
2023/11/04 06:29:16;;;;;;;2.33;1.50;;;8.00;99.90;;;;;;4992750;28;20603;-48
2023/11/04 06:31:42;;;;;;;1.48;1.38;;;8.00;99.90;;;;;;4991494;28;20033;-47
2023/11/04 06:34:07;;;;;;;2.33;1.55;;;8.00;99.90;;;;;;5007954;28;20117;-47
2023/11/04 06:36:33;;;;;;;3.65;1.17;;;8.00;99.90;;;;;;4992730;28;20027;-49
2023/11/04 06:38:58;;;;;;;1.52;1.30;;;8.00;99.90;;;;;;4992315;28;20477;-46
2023/11/04 06:41:24;;;;;;;1.30;1.20;;;8.10;99.90;;;;;;4992954;28;20342;-49
2023/11/04 06:43:51;;;;;;;4.25;1.70;;;8.10;99.90;;;;;;4992643;28;20550;-49
2023/11/04 06:46:17;;;;;;;1.10;1.00;;;8.10;99.90;;;;;;4992423;28;20033;-48
2023/11/04 06:48:43;;;;;;;7.50;1.52;;;8.10;99.90;;;;;;4992619;28;20397;-48
2023/11/04 06:51:09;;;;;;;4.15;1.42;;;8.10;99.90;;;;;;4992500;28;20029;-50
2023/11/04 06:53:34;;;;;;;1.30;1.17;;;8.10;99.90;;;;;;5003487;28;20638;-48
2023/11/04 06:56:02;;;;;;;1.67;1.48;;;8.20;99.90;;;;;;4992476;28;20112;-54
2023/11/04 06:58:28;;;;;;;1.10;1.02;;;8.20;99.90;;;;;;4998971;28;20022;-48
2023/11/04 07:00:54;;;;;;;1.48;1.35;;;8.20;99.90;;;;;;5008918;28;20048;-50
2023/11/04 07:03:19;;;;;;;2.92;1.20;;;8.20;99.90;;;;;;5010871;28;20484;-50
2023/11/04 07:05:45;;;;;;;1.30;1.20;;;8.20;99.90;;;;;;5011341;28;20544;-52
2023/11/04 07:08:14;;;;;;;2.60;1.38;;;8.20;99.90;;;;;;5010331;28;20489;-51
2023/11/04 07:10:43;;;;;;;3.90;1.30;;;8.20;99.90;;;;;;5010231;28;20489;-50
2023/11/04 07:13:12;;;;;;;2.95;1.40;;;8.20;99.90;;;;;;5010220;28;20036;-51
2023/11/04 07:15:43;;;;;;;3.63;1.80;;;8.20;99.90;;;;;;5010296;28;20030;-48
2023/11/04 07:18:08;;;;;;;5.35;1.10;;;8.30;99.90;;;;;;5011594;28;20462;-48
2023/11/04 07:20:34;;;;;;;2.75;1.50;;;8.30;99.90;;;;;;5011609;28;20097;-48
2023/11/04 07:23:00;;;;;;;2.28;1.20;;;8.30;99.90;;;;;;5011668;28;20037;-49
2023/11/04 07:25:26;;;;;;;2.38;1.67;;;8.30;99.90;;;;;;5011711;28;20074;-50
2023/11/04 07:27:52;;;;;;;1.52;1.05;;;8.30;99.90;;;;;;5010328;28;20037;-48
2023/11/04 07:30:17;;;;;;;1.10;1.08;;;8.30;99.90;;;;;;5011411;28;20375;-50
2023/11/04 07:32:43;;;;;;;1.45;0.90;;;8.40;99.90;;;;;;5011394;28;20401;-47
2023/11/04 07:35:09;;;;;;;1.52;1.10;;;8.40;99.90;;;;;;5010048;28;20468;-50
2023/11/04 07:37:36;;;;;;;0.90;0.90;;;8.50;99.90;;;;;;5011382;28;20397;-48
2023/11/04 07:40:04;;;;;;;2.55;1.08;;;8.50;99.90;;;;;;5011006;28;20028;-48
2023/11/04 07:42:30;;;;;;;2.45;1.20;;;8.50;99.90;;;;;;5011193;28;20071;-50
2023/11/04 07:44:55;;;;;;;2.20;1.02;;;8.60;99.90;;;;;;5009724;28;20475;-48
2023/11/04 07:47:21;;;;;;;5.60;1.73;;;8.60;99.90;;;;;;5010918;28;20459;-50
2023/11/04 07:49:47;;;;;;;5.53;1.50;;;8.60;99.90;;;;;;5010636;28;20034;-52
2023/11/04 07:52:13;;;;;;;3.05;1.13;;;8.60;99.90;;;;;;5009050;28;20056;-50
2023/11/04 07:54:38;;;;;;;6.15;2.35;;;8.60;99.90;;;;;;5010282;28;20072;-49
2023/11/04 07:57:04;;;;;;;1.77;1.65;;;8.70;99.90;;;;;;5010115;28;20030;-50
2023/11/04 07:59:30;;;;;;;1.15;1.00;;;8.70;99.90;;;;;;5010944;28;20018;-48
2023/11/04 08:01:56;;;;;;;0.95;0.95;;;8.70;99.90;;;;;;5010213;28;20071;-51
2023/11/04 08:04:22;;;;;;;1.27;1.25;;;8.80;99.90;;;;;;5008956;28;20025;-48
2023/11/04 08:06:48;;;;;;;2.22;0.90;;;8.80;99.90;;;;;;5010455;28;20036;-54
2023/11/04 08:09:14;;;;;;;1.17;1.08;;;8.90;99.90;;;;;;5007764;28;20554;-52
2023/11/04 08:11:39;;;;;;;3.30;1.55;;;8.90;99.90;;;;;;5010732;28;20432;-47
2023/11/04 08:14:05;;;;;;;1.33;1.20;;;8.80;99.90;;;;;;5010405;28;20051;-52
2023/11/04 08:16:30;;;;;;;2.28;1.70;;;8.90;99.90;;;;;;5010548;28;20026;-49
2023/11/04 08:18:56;;;;;;;0.95;0.95;;;8.90;99.90;;;;;;5010440;28;20026;-47
2023/11/04 08:21:22;;;;;;;1.20;1.10;;;9.00;99.90;;;;;;5010614;28;20159;-50
2023/11/04 08:23:48;;;;;;;1.55;1.15;;;9.00;99.90;;;;;;4994743;28;20030;-49
2023/11/04 08:26:13;;;;;;;2.92;1.10;;;9.00;99.90;;;;;;5002532;28;20109;-49
2023/11/04 08:28:39;;;;;;;7.13;1.20;;;9.10;99.90;;;;;;5008649;28;20480;-54
2023/11/04 08:31:04;;;;;;;1.15;0.98;;;9.20;99.90;;;;;;5007617;28;20518;-51
2023/11/04 08:33:31;;;;;;;3.17;1.30;;;9.30;99.90;;;;;;5009269;28;20477;-48
2023/11/04 08:35:57;;;;;;;1.60;1.00;;;9.40;99.90;;;;;;5010257;28;20115;-49
2023/11/04 08:38:23;;;;;;;1.20;0.93;;;9.50;99.90;;;;;;5009893;28;20486;-48
2023/11/04 08:40:50;;;;;;;0.73;0.73;;;9.50;99.90;;;;;;5008857;28;20037;-47
2023/11/04 08:43:16;;;;;;;2.92;1.00;;;9.50;99.90;;;;;;5008395;28;20546;-51
2023/11/04 08:45:41;;;;;;;2.50;1.00;;;9.40;99.90;;;;;;5009433;28;20034;-49
2023/11/04 08:48:07;;;;;;;3.42;1.02;;;9.50;99.90;;;;;;5007893;28;20082;-52
2023/11/04 08:50:32;;;;;;;1.05;0.95;;;9.60;99.90;;;;;;5009055;28;20030;-54
2023/11/04 08:52:58;;;;;;;1.30;0.68;;;10.40;99.90;;;;;;5010010;28;20049;-51
2023/11/04 08:55:23;;;;;;;2.22;0.88;;;11.50;99.90;;;;;;5009782;28;20581;-52
2023/11/04 08:57:49;;;;;;;1.00;0.90;;;12.50;99.90;;;;;;5009529;28;20050;-51
2023/11/04 09:00:15;;;;;;;0.98;0.98;;;13.40;99.90;;;;;;5007633;28;20083;-54
2023/11/04 09:02:41;;;;;;;1.33;1.00;;;14.00;99.90;;;;;;5007820;28;20038;-53
2023/11/04 09:05:08;;;;;;;1.48;0.75;;;14.30;99.90;;;;;;5008896;28;20110;-55
2023/11/04 09:07:34;;;;;;;3.00;0.52;;;15.00;99.90;;;;;;5009887;28;20026;-52
2023/11/04 09:09:59;;;;;;;1.55;0.82;;;15.00;99.90;;;;;;5009247;28;20382;-53
2023/11/04 09:12:24;;;;;;;0.75;0.75;;;15.00;99.90;;;;;;5009643;28;20065;-52
2023/11/04 09:14:50;;;;;;;0.60;0.60;;;14.60;99.90;;;;;;5008988;28;20038;-53
2023/11/04 09:17:17;;;;;;;1.33;0.75;;;13.70;99.90;;;;;;5008202;28;20018;-55
2023/11/04 09:19:43;;;;;;;2.70;0.70;;;13.00;99.90;;;;;;5009235;28;20018;-55
2023/11/04 09:22:08;;;;;;;0.90;0.88;;;12.50;99.90;;;;;;5009466;28;20091;-51
2023/11/04 09:24:34;;;;;;;0.80;0.80;;;12.10;99.90;;;;;;5008319;28;20087;-51
2023/11/04 09:27:00;;;;;;;1.65;0.65;;;11.70;99.90;;;;;;5008412;28;20029;-54
2023/11/04 09:29:25;;;;;;;0.73;0.73;;;11.30;99.90;;;;;;5008146;28;20055;-52
2023/11/04 09:31:51;;;;;;;2.85;0.65;;;;;;;;;;5009099;28;20026;-53
2023/11/04 09:34:22;;;;;;;4.47;1.63;;;;;;;;;;5008105;28;20040;-51
2023/11/04 09:36:48;;;;;;;5.05;0.82;;;12.30;99.90;;;;;;4999249;28;20101;-52
2023/11/04 09:39:16;;;;;;;2.72;0.80;;;12.80;99.90;;;;;;4996620;28;20101;-52
2023/11/04 09:41:41;;;;;;;1.38;0.80;;;12.60;99.90;;;;;;4996384;28;20025;-53
2023/11/04 09:44:07;;;;;;;7.13;0.77;;;12.40;99.90;;;;;;5007439;28;20045;-54
2023/11/04 09:46:33;;;;;;;0.75;0.70;;;12.20;99.90;;;;;;5007432;28;20521;-50
2023/11/04 09:49:00;;;;;;;1.60;0.85;;;;;;;;;;5006862;28;20073;-52
2023/11/04 09:51:28;;;;;;;5.68;1.15;;;;;;;;;;4989247;28;20034;-51
2023/11/04 09:53:58;;;;;;;2.60;0.98;;;11.50;99.90;;;;;;4988544;28;20378;-54
2023/11/04 09:56:24;;;;;;;0.82;0.80;;;11.70;99.90;;;;;;4997871;28;20022;-53
2023/11/04 09:58:50;;;;;;;0.98;0.60;;;12.10;99.90;;;;;;5007171;28;20113;-52
2023/11/04 10:01:18;;;;;;;3.38;0.70;;;12.30;99.90;;;;;;5007413;28;20029;-56
2023/11/04 10:03:45;;;;;;;3.10;0.70;;;12.30;99.90;;;;;;5007954;28;20040;-54
2023/11/04 10:06:10;;;;;;;2.80;0.60;;;12.20;99.90;;;;;;5007773;28;20041;-52
2023/11/04 10:08:36;;;;;;;1.20;0.90;;;12.00;99.90;;;;;;5007212;28;20113;-51
2023/11/04 10:11:02;;;;;;;1.17;1.13;;;11.80;99.90;;;;;;5003470;28;20485;-49
2023/11/04 10:13:27;;;;;;;1.38;0.90;;;11.70;99.90;;;;;;4992746;28;20035;-55
2023/11/04 10:15:53;;;;;;;3.10;2.20;;;11.60;99.90;;;;;;5007519;28;20150;-52
2023/11/04 10:18:19;;;;;;;6.80;1.42;;;11.50;99.90;;;;;;5007990;28;20022;-48
2023/11/04 10:20:46;;;;;;;1.42;1.05;;;;;;;;;;5007952;28;20038;-49
2023/11/04 10:23:12;;;;;;;1.05;0.77;;;;;;;;;;5004988;28;20405;-48
2023/11/04 10:25:38;;;;;;;1.30;0.60;;;;;;;;;;5003899;28;20037;-51
2023/11/04 10:28:04;;;;;;;4.18;0.82;;;;;;;;;;5006797;28;20030;-54
2023/11/04 10:30:29;;;;;;;0.55;0.43;;;11.40;99.90;;;;;;5006446;28;20401;-52
2023/11/04 10:33:03;;;;;;;1.75;0.70;;;11.30;99.90;;;;;;4997181;28;20358;-56
2023/11/04 10:35:29;;;;;;;1.63;0.70;;;11.20;99.90;;;;;;4986789;28;20041;-56
2023/11/04 10:37:59;;;;;;;2.47;0.82;;;11.20;99.90;;;;;;5004977;28;20030;-50
2023/11/04 10:40:25;;;;;;;3.30;0.60;;;11.20;99.90;;;;;;5006189;28;20022;-49
2023/11/04 10:43:00;;;;;;;0.68;0.60;;;11.20;99.90;;;;;;5007144;28;20474;-49
2023/11/04 10:45:36;;;;;;;1.08;0.65;;;11.20;99.90;;;;;;5007386;28;20030;-55
2023/11/04 10:48:10;;;;;;;0.82;0.70;;;11.20;99.90;;;;;;5006494;28;20034;-52
2023/11/04 10:50:39;;;;;;;0.40;0.40;;;11.30;99.90;;;;;;5007701;28;20037;-52
2023/11/04 10:53:30;;;;;;;1.52;0.73;;;11.30;99.90;;;;;;5008242;28;20029;-51
2023/11/04 10:56:08;;;;;;;3.63;0.65;;;11.30;99.90;;;;;;4996142;28;20038;-51
2023/11/04 10:58:48;;;;;;;0.98;0.60;;;11.30;99.90;;;;;;4989049;28;20034;-54
2023/11/04 11:01:14;;;;;;;2.33;0.52;;;11.30;99.90;;;;;;4989025;28;20097;-53
2023/11/04 11:03:41;;;;;;;4.05;0.70;;;11.30;99.90;;;;;;4988924;28;20097;-56
2023/11/04 11:06:10;;;;;;;1.55;0.75;;;11.40;99.90;;;;;;4991262;28;20018;-54
2023/11/04 11:08:38;;;;;;;2.70;1.58;;;11.40;99.90;;;;;;5011114;28;20112;-51
2023/11/04 11:11:34;;;;;;;1.05;0.60;;;11.30;99.90;;;;;;5010636;28;20041;-51
2023/11/04 11:14:01;;;;;;;0.65;0.60;;;11.30;99.90;;;;;;5013249;28;20041;-52
2023/11/04 11:16:29;;;;;;;3.03;0.60;;;11.20;99.90;;;;;;5008910;28;20041;-50
2023/11/04 11:19:08;;;;;;;1.10;1.00;;;11.20;99.90;;;;;;5004586;28;20026;-47
2023/11/04 11:21:49;;;;;;;0.70;0.70;;;11.20;99.90;;;;;;5000519;28;20029;-55
2023/11/04 11:24:15;;;;;;;0.70;0.60;;;11.20;99.90;;;;;;5005541;28;20055;-49
2023/11/04 11:26:51;;;;;;;0.60;0.60;;;11.10;99.90;;;;;;5011665;28;20014;-50
2023/11/04 11:29:24;;;;;;;0.60;0.60;;;11.10;99.90;;;;;;5011029;28;20026;-51
2023/11/04 11:31:51;;;;;;;0.80;0.80;;;11.10;99.90;;;;;;5011433;28;20046;-53
2023/11/04 11:34:19;;;;;;;3.42;2.83;;;11.10;99.90;;;;;;5009944;28;20439;-50
2023/11/04 11:36:49;;;;;;;5.93;4.43;;;11.10;99.90;;;;;;5011869;28;20018;-48
2023/11/04 11:39:14;;;;;;;1.60;1.20;;;11.10;99.90;;;;;;5011124;28;20018;-53
2023/11/04 11:41:43;;;;;;;1.30;1.10;;;11.00;99.90;;;;;;5009655;28;20026;-51
2023/11/04 11:44:10;;;;;;;1.30;0.82;;;11.10;99.90;;;;;;5011100;28;20101;-52
2023/11/04 11:46:36;;;;;;;1.40;0.75;;;11.00;99.90;;;;;;5011014;28;20489;-54
2023/11/04 11:49:02;;;;;;;3.05;1.60;;;11.00;99.90;;;;;;5010981;28;20072;-50
2023/11/04 11:51:28;;;;;;;1.80;0.98;;;11.00;99.90;;;;;;5010926;28;20037;-52
2023/11/04 11:53:54;;;;;;;2.15;0.95;;;11.00;99.90;;;;;;5009544;28;20030;-53
2023/11/04 11:56:19;;;;;;;1.85;0.63;;;11.10;99.90;;;;;;5009699;28;20075;-51
2023/11/04 11:58:47;;;;;;;0.70;0.70;;;11.10;99.90;;;;;;5011228;28;20038;-52
2023/11/04 12:01:14;;;;;;;1.40;0.55;;;11.10;99.90;;;;;;5011066;28;20396;-54
2023/11/04 12:03:39;;;;;;;1.85;1.13;;;11.10;99.90;;;;;;5010811;28;20017;-52
2023/11/04 12:06:07;;;;;;;0.95;0.60;;;11.20;99.90;;;;;;5010576;28;20026;-51
2023/11/04 12:08:32;;;;;;;3.63;0.70;;;11.20;99.90;;;;;;5009793;28;20147;-50
2023/11/04 12:10:58;;;;;;;3.85;1.90;;;11.20;99.90;;;;;;5011114;28;20537;-51
2023/11/04 12:13:23;;;;;;;2.83;0.57;;;11.10;99.90;;;;;;5008812;28;20044;-49
2023/11/04 12:15:49;;;;;;;1.27;1.23;;;11.20;99.90;;;;;;5010416;28;20144;-51
2023/11/04 12:18:14;;;;;;;3.58;1.58;;;11.20;99.90;;;;;;5009535;28;20163;-49
2023/11/04 12:20:41;;;;;;;0.95;0.82;;;11.20;99.90;;;;;;5008958;28;20109;-52
2023/11/04 12:23:12;;;;;;;1.45;0.70;;;11.10;99.90;;;;;;5010105;28;20235;-48
2023/11/04 12:25:40;;;;;;;2.95;1.10;;;11.10;99.90;;;;;;5009791;28;20034;-51
2023/11/04 12:28:07;;;;;;;4.43;1.50;;;11.10;99.90;;;;;;5010271;28;20034;-52
2023/11/04 12:30:33;;;;;;;3.17;1.42;;;11.10;99.90;;;;;;5009734;28;20022;-52
2023/11/04 12:33:00;;;;;;;4.30;1.30;;;11.10;99.90;;;;;;5010449;28;20033;-50
2023/11/04 12:35:26;;;;;;;4.05;2.65;;;11.10;99.90;;;;;;5008526;28;20038;-55
2023/11/04 12:37:52;;;;;;;3.85;1.63;;;11.10;99.90;;;;;;5010301;28;20038;-48
2023/11/04 12:40:19;;;;;;;2.38;1.55;;;11.10;99.90;;;;;;4995626;28;20033;-50
2023/11/04 12:42:45;;;;;;;2.60;1.30;;;11.10;99.90;;;;;;5004124;28;20022;-51
2023/11/04 12:45:13;;;;;;;1.30;1.17;;;11.10;99.90;;;;;;4990649;28;20027;-51
2023/11/04 12:47:39;;;;;;;3.15;1.05;;;11.20;99.90;;;;;;4996899;28;20056;-51
2023/11/04 12:50:11;;;;;;;0.70;0.60;;;11.20;99.90;;;;;;5008084;28;20058;-54
2023/11/04 12:52:37;;;;;;;0.57;0.57;;;11.20;99.90;;;;;;5009713;28;20014;-54